sensor_id;sensor_type;location;lat;lon;timestamp;pressure;altitude;pressure_sealevel;temperature;humidity
48778;BME280;34578;0.000;0.000;2023-01-30T00:02:48;97366.78;;;18.24;46.28
48778;BME280;34578;0.000;0.000;2023-01-30T00:07:49;97364.25;;;18.24;44.58
48778;BME280;34578;0.000;0.000;2023-01-30T00:12:49;97342.94;;;18.08;44.71
48778;BME280;34578;0.000;0.000;2023-01-30T00:17:49;97333.66;;;18.07;44.44
48778;BME280;34578;0.000;0.000;2023-01-30T00:22:50;97303.22;;;18.06;44.47
48778;BME280;34578;0.000;0.000;2023-01-30T00:27:50;97292.25;;;18.05;44.93
48778;BME280;34578;0.000;0.000;2023-01-30T00:32:57;97282.91;;;18.01;44.47
48778;BME280;34578;0.000;0.000;2023-01-30T00:37:58;97289.66;;;18.01;45.08
48778;BME280;34578;0.000;0.000;2023-01-30T00:42:58;97285.38;;;17.97;44.80
48778;BME280;34578;0.000;0.000;2023-01-30T00:48:17;97289.66;;;17.98;44.63
48778;BME280;34578;0.000;0.000;2023-01-30T00:53:18;97286.28;;;17.99;44.62
48778;BME280;34578;0.000;0.000;2023-01-30T00:58:18;97267.72;;;18.03;45.57
48778;BME280;34578;0.000;0.000;2023-01-30T01:03:19;97250.97;;;18.17;45.99
48778;BME280;34578;0.000;0.000;2023-01-30T01:08:19;97247.59;;;18.18;45.47
48778;BME280;34578;0.000;0.000;2023-01-30T01:13:21;97240.72;;;18.06;45.38
48778;BME280;34578;0.000;0.000;2023-01-30T01:18:22;97239.81;;;18.00;44.96
48778;BME280;34578;0.000;0.000;2023-01-30T01:23:22;97230.47;;;17.96;44.99
48778;BME280;34578;0.000;0.000;2023-01-30T01:28:23;97252.44;;;17.97;44.52
48778;BME280;34578;0.000;0.000;2023-01-30T01:33:27;97281.13;;;17.93;44.58
48778;BME280;34578;0.000;0.000;2023-01-30T01:38:28;97294.63;;;17.92;44.70
48778;BME280;34578;0.000;0.000;2023-01-30T01:43:31;97320.78;;;17.92;44.85
48778;BME280;34578;0.000;0.000;2023-01-30T01:48:39;97324.13;;;17.87;44.68
48778;BME280;34578;0.000;0.000;2023-01-30T01:53:50;97359.59;;;17.88;44.64
48778;BME280;34578;0.000;0.000;2023-01-30T01:58:57;97403.50;;;17.89;44.56
48778;BME280;34578;0.000;0.000;2023-01-30T02:04:02;97414.72;;;18.07;45.78
48778;BME280;34578;0.000;0.000;2023-01-30T02:09:06;97429.09;;;18.08;45.65
48778;BME280;34578;0.000;0.000;2023-01-30T02:14:09;97418.06;;;18.05;44.71
48778;BME280;34578;0.000;0.000;2023-01-30T02:19:24;97413.69;;;17.92;44.28
48778;BME280;34578;0.000;0.000;2023-01-30T02:35:37;97385.72;;;17.84;44.72
48778;BME280;34578;0.000;0.000;2023-01-30T02:40:49;97378.97;;;17.85;44.76
48778;BME280;34578;0.000;0.000;2023-01-30T02:51:22;97348.56;;;17.82;44.42
48778;BME280;34578;0.000;0.000;2023-01-30T02:56:24;97334.16;;;17.81;44.66
48778;BME280;34578;0.000;0.000;2023-01-30T03:17:25;97347.81;;;17.93;43.85
48778;BME280;34578;0.000;0.000;2023-01-30T03:22:27;97334.13;;;17.78;44.71
48778;BME280;34578;0.000;0.000;2023-01-30T03:27:29;97335.88;;;17.83;44.26
48778;BME280;34578;0.000;0.000;2023-01-30T03:32:30;97321.50;;;17.81;44.80
48778;BME280;34578;0.000;0.000;2023-01-30T03:37:31;97329.13;;;17.82;44.07
48778;BME280;34578;0.000;0.000;2023-01-30T03:42:31;97316.53;;;17.88;43.61
48778;BME280;34578;0.000;0.000;2023-01-30T03:47:32;97288.63;;;17.84;43.57
48778;BME280;34578;0.000;0.000;2023-01-30T03:52:34;97300.38;;;17.79;44.15
48778;BME280;34578;0.000;0.000;2023-01-30T03:57:35;97291.94;;;17.80;44.01
48778;BME280;34578;0.000;0.000;2023-01-30T04:02:36;97266.50;;;17.71;43.49
48778;BME280;34578;0.000;0.000;2023-01-30T04:07:37;97251.38;;;17.74;43.96
48778;BME280;34578;0.000;0.000;2023-01-30T04:12:38;97249.06;;;17.95;44.64
48778;BME280;34578;0.000;0.000;2023-01-30T04:17:39;97246.56;;;17.99;44.62
48778;BME280;34578;0.000;0.000;2023-01-30T04:22:42;97278.53;;;17.87;43.75
48778;BME280;34578;0.000;0.000;2023-01-30T04:27:43;97265.72;;;17.75;43.72
48778;BME280;34578;0.000;0.000;2023-01-30T04:32:51;97270.75;;;17.72;43.74
48778;BME280;34578;0.000;0.000;2023-01-30T04:37:51;97274.94;;;17.70;43.57
48778;BME280;34578;0.000;0.000;2023-01-30T04:42:53;97281.69;;;17.71;43.49
48778;BME280;34578;0.000;0.000;2023-01-30T04:48:24;97290.09;;;17.65;43.62
48778;BME280;34578;0.000;0.000;2023-01-30T04:53:25;97312.94;;;17.70;43.83
48778;BME280;34578;0.000;0.000;2023-01-30T04:58:25;97323.06;;;17.70;43.82
48778;BME280;34578;0.000;0.000;2023-01-30T05:03:26;97334.94;;;17.75;43.54
48778;BME280;34578;0.000;0.000;2023-01-30T05:08:26;97320.59;;;17.76;42.89
48778;BME280;34578;0.000;0.000;2023-01-30T05:13:27;97315.72;;;17.89;42.52
48778;BME280;34578;0.000;0.000;2023-01-30T05:18:27;97322.69;;;18.07;43.00
48778;BME280;34578;0.000;0.000;2023-01-30T05:23:27;97308.34;;;18.09;42.80
48778;BME280;34578;0.000;0.000;2023-01-30T05:28:28;97293.88;;;17.99;42.65
48778;BME280;34578;0.000;0.000;2023-01-30T05:33:28;97312.34;;;17.93;42.41
48778;BME280;34578;0.000;0.000;2023-01-30T05:38:29;97318.19;;;17.85;42.21
48778;BME280;34578;0.000;0.000;2023-01-30T05:43:30;97305.59;;;17.91;42.44
48778;BME280;34578;0.000;0.000;2023-01-30T05:48:31;97329.19;;;17.85;41.65
48778;BME280;34578;0.000;0.000;2023-01-30T05:53:33;97312.25;;;17.84;41.62
48778;BME280;34578;0.000;0.000;2023-01-30T05:58:36;97312.28;;;17.86;42.31
48778;BME280;34578;0.000;0.000;2023-01-30T06:03:37;97302.16;;;17.86;42.93
48778;BME280;34578;0.000;0.000;2023-01-30T06:08:38;97291.16;;;17.84;43.04
48778;BME280;34578;0.000;0.000;2023-01-30T06:13:38;97301.25;;;17.82;42.96
48778;BME280;34578;0.000;0.000;2023-01-30T06:18:39;97325.69;;;17.79;42.72
48778;BME280;34578;0.000;0.000;2023-01-30T06:23:40;97332.66;;;17.95;42.87
48778;BME280;34578;0.000;0.000;2023-01-30T06:28:40;97318.53;;;18.15;40.63
48778;BME280;34578;0.000;0.000;2023-01-30T06:33:43;97326.28;;;17.57;37.23
48778;BME280;34578;0.000;0.000;2023-01-30T06:38:44;97307.06;;;17.72;36.46
48778;BME280;34578;0.000;0.000;2023-01-30T06:43:44;97307.75;;;17.61;37.27
48778;BME280;34578;0.000;0.000;2023-01-30T06:48:44;97319.06;;;17.85;37.88
48778;BME280;34578;0.000;0.000;2023-01-30T06:53:45;97314.09;;;17.96;37.85
48778;BME280;34578;0.000;0.000;2023-01-30T06:58:45;97307.38;;;17.99;37.79
48778;BME280;34578;0.000;0.000;2023-01-30T07:03:46;97305.69;;;18.01;37.86
48778;BME280;34578;0.000;0.000;2023-01-30T07:08:47;97288.00;;;18.03;37.73
48778;BME280;34578;0.000;0.000;2023-01-30T07:13:48;97287.16;;;18.04;37.80
48778;BME280;34578;0.000;0.000;2023-01-30T07:18:48;97285.47;;;18.04;37.85
48778;BME280;34578;0.000;0.000;2023-01-30T07:23:48;97261.84;;;18.05;37.32
48778;BME280;34578;0.000;0.000;2023-01-30T07:28:51;97248.41;;;18.14;38.86
48778;BME280;34578;0.000;0.000;2023-01-30T07:33:51;97240.78;;;18.14;40.62
48778;BME280;34578;0.000;0.000;2023-01-30T07:38:52;97255.13;;;18.12;39.31
48778;BME280;34578;0.000;0.000;2023-01-30T07:43:52;97274.56;;;18.10;38.04
48778;BME280;34578;0.000;0.000;2023-01-30T07:48:53;97277.91;;;18.07;37.79
48778;BME280;34578;0.000;0.000;2023-01-30T07:53:53;97270.28;;;18.06;37.51
48778;BME280;34578;0.000;0.000;2023-01-30T07:58:54;97273.66;;;18.03;37.77
48778;BME280;34578;0.000;0.000;2023-01-30T08:03:55;97299.81;;;18.04;37.90
48778;BME280;34578;0.000;0.000;2023-01-30T08:08:55;97326.81;;;18.00;38.08
48778;BME280;34578;0.000;0.000;2023-01-30T08:13:56;97323.47;;;18.03;37.23
48778;BME280;34578;0.000;0.000;2023-01-30T08:18:57;97305.69;;;17.98;37.49
48778;BME280;34578;0.000;0.000;2023-01-30T08:23:57;97328.50;;;18.01;37.58
48778;BME280;34578;0.000;0.000;2023-01-30T08:28:58;97309.94;;;18.01;37.68
48778;BME280;34578;0.000;0.000;2023-01-30T08:33:58;97304.03;;;18.05;39.91
48778;BME280;34578;0.000;0.000;2023-01-30T08:38:58;97298.13;;;18.03;41.32
48778;BME280;34578;0.000;0.000;2023-01-30T08:44:01;97313.31;;;18.03;40.87
48778;BME280;34578;0.000;0.000;2023-01-30T08:49:02;97304.84;;;17.99;39.26
48778;BME280;34578;0.000;0.000;2023-01-30T08:54:02;97317.44;;;17.95;37.93
48778;BME280;34578;0.000;0.000;2023-01-30T08:59:03;97342.75;;;17.92;37.76
48778;BME280;34578;0.000;0.000;2023-01-30T09:04:03;97339.44;;;17.94;38.93
48778;BME280;34578;0.000;0.000;2023-01-30T09:09:03;97344.50;;;17.94;37.09
48778;BME280;34578;0.000;0.000;2023-01-30T09:14:04;97348.66;;;17.92;37.46
48778;BME280;34578;0.000;0.000;2023-01-30T09:19:04;97355.44;;;17.92;37.85
48778;BME280;34578;0.000;0.000;2023-01-30T09:24:08;97347.81;;;17.92;37.09
48778;BME280;34578;0.000;0.000;2023-01-30T09:29:08;97327.50;;;17.89;36.10
48778;BME280;34578;0.000;0.000;2023-01-30T09:34:09;97309.75;;;17.86;36.08
48778;BME280;34578;0.000;0.000;2023-01-30T09:39:09;97320.78;;;17.92;36.20
48778;BME280;34578;0.000;0.000;2023-01-30T09:54:39;97309.13;;;18.03;38.34
48778;BME280;34578;0.000;0.000;2023-01-30T09:59:54;97292.13;;;17.95;36.41
48778;BME280;34578;0.000;0.000;2023-01-30T10:04:56;97300.53;;;17.92;36.16
48778;BME280;34578;0.000;0.000;2023-01-30T10:15:27;97301.31;;;17.87;36.58
48778;BME280;34578;0.000;0.000;2023-01-30T10:20:51;97324.13;;;17.88;36.08
48778;BME280;34578;0.000;0.000;2023-01-30T10:26:01;97315.72;;;17.91;36.03
48778;BME280;34578;0.000;0.000;2023-01-30T10:31:09;97278.56;;;17.90;35.83
48778;BME280;34578;0.000;0.000;2023-01-30T10:36:14;97266.75;;;17.92;36.08
48778;BME280;34578;0.000;0.000;2023-01-30T10:46:56;97257.47;;;17.91;35.92
48778;BME280;34578;0.000;0.000;2023-01-30T11:07:17;97214.38;;;17.89;36.51
48778;BME280;34578;0.000;0.000;2023-01-30T11:12:18;97205.91;;;17.87;35.92
48778;BME280;34578;0.000;0.000;2023-01-30T11:17:23;97186.47;;;17.85;35.86
48778;BME280;34578;0.000;0.000;2023-01-30T11:22:30;97187.34;;;17.85;35.74
48778;BME280;34578;0.000;0.000;2023-01-30T11:27:33;97173.78;;;17.82;35.67
48778;BME280;34578;0.000;0.000;2023-01-30T11:32:34;97166.28;;;17.94;36.01
48778;BME280;34578;0.000;0.000;2023-01-30T11:37:39;97160.16;;;17.69;36.42
48778;BME280;34578;0.000;0.000;2023-01-30T11:42:45;97165.44;;;17.95;36.91
48778;BME280;34578;0.000;0.000;2023-01-30T11:47:57;97155.34;;;17.99;37.17
48778;BME280;34578;0.000;0.000;2023-01-30T11:53:02;97136.84;;;18.03;37.35
48778;BME280;34578;0.000;0.000;2023-01-30T11:58:06;97127.56;;;18.07;39.70
48778;BME280;34578;0.000;0.000;2023-01-30T12:03:14;97116.63;;;18.12;39.51
48778;BME280;34578;0.000;0.000;2023-01-30T12:13:39;97122.38;;;17.93;37.10
48778;BME280;34578;0.000;0.000;2023-01-30T12:18:58;97131.75;;;18.05;36.81
48778;BME280;34578;0.000;0.000;2023-01-30T12:24:20;97125.06;;;18.13;36.89
48778;BME280;34578;0.000;0.000;2023-01-30T12:29:44;97136.03;;;18.12;37.17
48778;BME280;34578;0.000;0.000;2023-01-30T12:34:50;97144.50;;;18.12;37.33
48778;BME280;34578;0.000;0.000;2023-01-30T13:01:15;97108.19;;;18.10;35.89
48778;BME280;34578;0.000;0.000;2023-01-30T13:06:33;97111.53;;;18.11;38.01
48778;BME280;34578;0.000;0.000;2023-01-30T13:12:06;97104.75;;;18.08;37.66
48778;BME280;34578;0.000;0.000;2023-01-30T13:17:30;97104.75;;;18.08;37.54
48778;BME280;34578;0.000;0.000;2023-01-30T13:23:00;97098.88;;;18.08;37.27
48778;BME280;34578;0.000;0.000;2023-01-30T13:28:10;97099.63;;;17.98;37.09
48778;BME280;34578;0.000;0.000;2023-01-30T13:33:17;97101.34;;;18.02;36.92
48778;BME280;34578;0.000;0.000;2023-01-30T13:38:25;97097.13;;;18.04;37.40
48778;BME280;34578;0.000;0.000;2023-01-30T13:43:36;97103.88;;;18.05;37.14
48778;BME280;34578;0.000;0.000;2023-01-30T13:53:55;97111.50;;;18.03;36.91
48778;BME280;34578;0.000;0.000;2023-01-30T13:59:03;97114.81;;;17.99;36.30
48778;BME280;34578;0.000;0.000;2023-01-30T14:09:47;97122.47;;;18.04;40.30
48778;BME280;34578;0.000;0.000;2023-01-30T14:15:00;97127.53;;;18.02;42.44
48778;BME280;34578;0.000;0.000;2023-01-30T14:20:03;97130.97;;;18.09;39.59
48778;BME280;34578;0.000;0.000;2023-01-30T14:35:31;97147.78;;;18.01;37.23
48778;BME280;34578;0.000;0.000;2023-01-30T14:40:33;97155.34;;;17.99;37.16
48778;BME280;34578;0.000;0.000;2023-01-30T14:45:47;97159.59;;;18.00;37.82
48778;BME280;34578;0.000;0.000;2023-01-30T14:50:48;97169.75;;;18.02;37.50
48778;BME280;34578;0.000;0.000;2023-01-30T14:55:58;97172.19;;;17.91;38.00
48778;BME280;34578;0.000;0.000;2023-01-30T15:00:59;97169.72;;;17.99;37.20
48778;BME280;34578;0.000;0.000;2023-01-30T15:05:59;97189.16;;;18.00;38.04
48778;BME280;34578;0.000;0.000;2023-01-30T15:11:07;97201.00;;;18.02;37.37
48778;BME280;34578;0.000;0.000;2023-01-30T15:16:33;97215.38;;;18.05;37.07
48778;BME280;34578;0.000;0.000;2023-01-30T15:27:09;97232.25;;;18.06;41.93
48778;BME280;34578;0.000;0.000;2023-01-30T15:42:30;97264.22;;;17.92;36.84
48778;BME280;34578;0.000;0.000;2023-01-30T15:48:10;97265.09;;;17.94;36.56
48778;BME280;34578;0.000;0.000;2023-01-30T15:53:15;97261.75;;;17.96;36.86
48778;BME280;34578;0.000;0.000;2023-01-30T15:58:17;97271.91;;;17.99;36.62
48778;BME280;34578;0.000;0.000;2023-01-30T16:03:22;97282.91;;;18.00;36.97
48778;BME280;34578;0.000;0.000;2023-01-30T16:08:28;97287.97;;;18.00;36.59
48778;BME280;34578;0.000;0.000;2023-01-30T16:13:29;97307.38;;;17.99;36.87
48778;BME280;34578;0.000;0.000;2023-01-30T16:18:39;97311.56;;;17.96;37.03
48778;BME280;34578;0.000;0.000;2023-01-30T16:23:49;97324.97;;;17.89;36.92
48778;BME280;34578;0.000;0.000;2023-01-30T16:28:59;97323.47;;;18.06;40.28
48778;BME280;34578;0.000;0.000;2023-01-30T16:34:00;97343.03;;;18.14;40.39
48778;BME280;34578;0.000;0.000;2023-01-30T16:39:00;97331.06;;;18.03;38.03
48778;BME280;34578;0.000;0.000;2023-01-30T16:49:23;97359.31;;;17.11;36.04
48778;BME280;34578;0.000;0.000;2023-01-30T16:54:27;97365.06;;;17.01;36.95
48778;BME280;34578;0.000;0.000;2023-01-30T16:59:32;97363.22;;;17.43;36.51
48778;BME280;34578;0.000;0.000;2023-01-30T17:04:33;97371.88;;;17.60;36.61
48778;BME280;34578;0.000;0.000;2023-01-30T17:09:46;97387.16;;;17.66;36.80
48778;BME280;34578;0.000;0.000;2023-01-30T17:14:47;97387.09;;;17.63;36.27
48778;BME280;34578;0.000;0.000;2023-01-30T17:19:47;97395.53;;;17.62;36.39
48778;BME280;34578;0.000;0.000;2023-01-30T17:24:48;97411.66;;;17.67;36.77
48778;BME280;34578;0.000;0.000;2023-01-30T17:29:48;97401.50;;;17.65;36.39
48778;BME280;34578;0.000;0.000;2023-01-30T17:34:48;97403.13;;;17.62;36.49
48778;BME280;34578;0.000;0.000;2023-01-30T17:39:49;97413.63;;;17.87;38.61
48778;BME280;34578;0.000;0.000;2023-01-30T17:44:50;97420.50;;;17.94;41.51
48778;BME280;34578;0.000;0.000;2023-01-30T17:49:50;97428.78;;;17.84;36.68
48778;BME280;34578;0.000;0.000;2023-01-30T17:54:51;97426.13;;;17.75;36.75
48778;BME280;34578;0.000;0.000;2023-01-30T17:59:51;97432.72;;;17.64;36.74
48778;BME280;34578;0.000;0.000;2023-01-30T18:04:52;97450.59;;;17.75;36.42
48778;BME280;34578;0.000;0.000;2023-01-30T18:09:52;97448.94;;;17.77;36.69
48778;BME280;34578;0.000;0.000;2023-01-30T18:14:52;97442.94;;;17.72;36.96
48778;BME280;34578;0.000;0.000;2023-01-30T18:19:54;97456.50;;;17.74;36.40
48778;BME280;34578;0.000;0.000;2023-01-30T18:24:55;97464.09;;;17.75;36.33
48778;BME280;34578;0.000;0.000;2023-01-30T18:29:55;97465.75;;;17.72;36.63
48778;BME280;34578;0.000;0.000;2023-01-30T18:34:55;97461.59;;;17.77;36.40
48778;BME280;34578;0.000;0.000;2023-01-30T18:39:56;97471.69;;;17.74;36.53
48778;BME280;34578;0.000;0.000;2023-01-30T18:44:56;97474.31;;;17.80;38.17
48778;BME280;34578;0.000;0.000;2023-01-30T18:49:56;97471.09;;;17.90;37.29
48778;BME280;34578;0.000;0.000;2023-01-30T18:54:57;97462.78;;;18.01;38.45
48778;BME280;34578;0.000;0.000;2023-01-30T18:59:57;97469.38;;;17.87;36.41
48778;BME280;34578;0.000;0.000;2023-01-30T19:04:57;97466.63;;;17.74;36.41
48778;BME280;34578;0.000;0.000;2023-01-30T19:09:58;97472.50;;;17.71;36.39
48778;BME280;34578;0.000;0.000;2023-01-30T19:14:58;97472.53;;;17.74;36.48
48778;BME280;34578;0.000;0.000;2023-01-30T19:19:59;97481.00;;;17.75;36.13
48778;BME280;34578;0.000;0.000;2023-01-30T19:25:01;97488.53;;;17.72;36.50
48778;BME280;34578;0.000;0.000;2023-01-30T19:30:01;97494.47;;;17.72;36.21
48778;BME280;34578;0.000;0.000;2023-01-30T19:35:03;97502.03;;;17.71;36.17
48778;BME280;34578;0.000;0.000;2023-01-30T19:40:05;97513.81;;;17.69;36.48
48778;BME280;34578;0.000;0.000;2023-01-30T19:45:08;97513.81;;;17.69;36.26
48778;BME280;34578;0.000;0.000;2023-01-30T19:50:09;97517.19;;;17.68;36.60
48778;BME280;34578;0.000;0.000;2023-01-30T19:55:10;97523.28;;;17.80;38.10
48778;BME280;34578;0.000;0.000;2023-01-30T20:00:11;97527.69;;;17.93;40.27
48778;BME280;34578;0.000;0.000;2023-01-30T20:05:12;97527.72;;;17.95;37.84
48778;BME280;34578;0.000;0.000;2023-01-30T20:10:12;97534.25;;;17.81;36.75
48778;BME280;34578;0.000;0.000;2023-01-30T20:15:13;97542.63;;;17.74;36.93
48778;BME280;34578;0.000;0.000;2023-01-30T20:20:13;97549.31;;;17.72;36.46
48778;BME280;34578;0.000;0.000;2023-01-30T20:25:13;97539.94;;;17.66;36.65
48778;BME280;34578;0.000;0.000;2023-01-30T20:30:14;97549.31;;;17.72;36.53
48778;BME280;34578;0.000;0.000;2023-01-30T20:35:14;97543.31;;;17.65;36.76
48778;BME280;34578;0.000;0.000;2023-01-30T20:40:15;97566.31;;;17.79;37.32
48778;BME280;34578;0.000;0.000;2023-01-30T20:45:15;97560.38;;;17.77;37.14
48778;BME280;34578;0.000;0.000;2023-01-30T20:50:16;97562.94;;;17.80;37.39
48778;BME280;34578;0.000;0.000;2023-01-30T20:55:16;97570.63;;;17.83;37.51
48778;BME280;34578;0.000;0.000;2023-01-30T21:00:17;97573.16;;;17.83;37.60
48778;BME280;34578;0.000;0.000;2023-01-30T21:05:17;97576.59;;;17.88;38.10
48778;BME280;34578;0.000;0.000;2023-01-30T21:10:18;97580.09;;;17.96;45.21
48778;BME280;34578;0.000;0.000;2023-01-30T21:15:19;97587.69;;;17.94;42.90
48778;BME280;34578;0.000;0.000;2023-01-30T21:20:19;97581.66;;;17.88;37.78
48778;BME280;34578;0.000;0.000;2023-01-30T21:25:20;97600.19;;;17.84;37.95
48778;BME280;34578;0.000;0.000;2023-01-30T21:30:20;97598.41;;;17.80;37.63
48778;BME280;34578;0.000;0.000;2023-01-30T21:35:20;97611.03;;;17.77;37.81
48778;BME280;34578;0.000;0.000;2023-01-30T21:40:21;97629.59;;;17.76;37.69
48778;BME280;34578;0.000;0.000;2023-01-30T21:45:40;97625.38;;;17.76;37.45
48778;BME280;34578;0.000;0.000;2023-01-30T21:50:41;97624.38;;;17.68;37.46
48778;BME280;34578;0.000;0.000;2023-01-30T21:55:41;97638.03;;;17.75;37.71
48778;BME280;34578;0.000;0.000;2023-01-30T22:00:41;97649.78;;;17.71;37.20
48778;BME280;34578;0.000;0.000;2023-01-30T22:05:42;97640.56;;;17.75;37.11
48778;BME280;34578;0.000;0.000;2023-01-30T22:10:44;97643.81;;;17.68;36.83
48778;BME280;34578;0.000;0.000;2023-01-30T22:15:44;97660.06;;;17.80;36.95
48778;BME280;34578;0.000;0.000;2023-01-30T22:20:45;97662.81;;;17.91;44.52
48778;BME280;34578;0.000;0.000;2023-01-30T22:25:53;97664.50;;;17.93;39.95
48778;BME280;34578;0.000;0.000;2023-01-30T22:31:04;97662.66;;;17.82;36.99
48778;BME280;34578;0.000;0.000;2023-01-30T22:36:06;97668.41;;;17.75;37.19
48778;BME280;34578;0.000;0.000;2023-01-30T22:41:08;97664.19;;;17.74;37.40
48778;BME280;34578;0.000;0.000;2023-01-30T22:46:16;97669.25;;;17.74;37.17
48778;BME280;34578;0.000;0.000;2023-01-30T22:51:17;97674.25;;;17.71;36.94
48778;BME280;34578;0.000;0.000;2023-01-30T22:56:23;97679.31;;;17.71;36.83
48778;BME280;34578;0.000;0.000;2023-01-30T23:01:29;97680.97;;;17.69;36.55
48778;BME280;34578;0.000;0.000;2023-01-30T23:06:32;97684.31;;;17.68;36.37
48778;BME280;34578;0.000;0.000;2023-01-30T23:11:38;97680.00;;;17.64;36.56
48778;BME280;34578;0.000;0.000;2023-01-30T23:16:41;97670.78;;;17.66;36.21
48778;BME280;34578;0.000;0.000;2023-01-30T23:21:43;97668.22;;;17.64;36.60
48778;BME280;34578;0.000;0.000;2023-01-30T23:26:48;97672.63;;;17.73;36.76
48778;BME280;34578;0.000;0.000;2023-01-30T23:31:48;97669.34;;;17.80;45.93
48778;BME280;34578;0.000;0.000;2023-01-30T23:36:49;97661.66;;;17.75;45.50
48778;BME280;34578;0.000;0.000;2023-01-30T23:41:49;97655.69;;;17.72;37.48
48778;BME280;34578;0.000;0.000;2023-01-30T23:46:50;97652.22;;;17.67;36.76
48778;BME280;34578;0.000;0.000;2023-01-30T23:51:51;97646.28;;;17.65;36.58
48778;BME280;34578;0.000;0.000;2023-01-30T23:56:52;97639.47;;;17.61;36.46
